Time;durP1;ratioP1;P1;durP2;ratioP2;P2;SDS_P1;SDS_P2;PMS_P1;PMS_P2;Temp;Humidity;BMP_temperature;BMP_pressure;BME280_temperature;BME280_humidity;BME280_pressure;Samples;Min_cycle;Max_cycle;Signal;HPM_P1;HPM_P2
2022/08/12 00:43:18;;;;;;;4.43;3.10;;;;;;;20.22;61.80;96618.94;5058672;28;20260;-51
2022/08/12 00:48:31;;;;;;;3.22;2.65;;;;;;;20.28;60.35;96615.47;5077800;28;20194;-51
2022/08/12 00:50:58;;;;;;;2.72;2.53;;;;;;;20.29;60.23;96619.81;5081768;28;20189;-51
2022/08/12 00:53:27;;;;;;;3.22;2.70;;;;;;;20.14;60.86;96613.75;5082560;28;20194;-52
2022/08/12 00:55:58;;;;;;;3.72;2.67;;;;;;;20.12;61.03;96616.63;5081166;28;20274;-51
2022/08/12 00:58:27;;;;;;;2.65;2.55;;;;;;;20.14;60.43;96611.06;5082471;28;20179;-52
2022/08/12 01:01:00;;;;;;;2.80;2.60;;;;;;;20.12;60.70;96611.25;5079918;28;20189;-52
2022/08/12 01:11:27;;;;;;;2.92;2.72;;;;;;;20.08;61.23;96615.41;5081758;28;20167;-52
2022/08/12 01:11:58;;;;;;;2.60;2.40;;;;;;;19.91;61.91;96624.03;5056216;28;20179;-52
2022/08/12 01:14:25;;;;;;;3.17;2.50;;;;;;;19.88;62.71;96626.06;5056035;28;20223;-52
2022/08/12 01:16:53;;;;;;;4.47;2.90;;;;;;;19.71;63.48;96614.03;5058147;28;20294;-51
2022/08/12 01:19:21;;;;;;;2.72;2.53;;;;;;;19.69;63.55;96615.28;5057598;28;20628;-53
2022/08/12 01:22:09;;;;;;;3.08;2.78;;;;;;;19.61;63.97;96613.59;5057663;28;20211;-52
2022/08/12 01:24:49;;;;;;;2.92;2.67;;;;;;;19.58;63.10;96613.16;5056872;28;20196;-51
2022/08/12 01:27:20;;;;;;;3.20;2.95;;;;;;;19.46;64.47;96610.19;5057686;28;20202;-52
2022/08/12 01:29:47;;;;;;;3.20;2.53;;;;;;;19.39;64.12;96609.31;5057876;28;20837;-51
2022/08/12 01:32:15;;;;;;;3.05;2.50;;;;;;;19.27;65.04;96601.00;5057752;28;20297;-51
2022/08/12 01:34:50;;;;;;;3.35;3.05;;;;;;;19.16;65.60;96603.41;5057296;28;20559;-51
2022/08/12 01:37:20;;;;;;;2.95;2.75;;;;;;;19.17;65.34;96599.69;5070181;28;20218;-53
2022/08/12 01:39:52;;;;;;;3.42;2.83;;;;;;;19.06;65.75;96605.63;5070477;28;20222;-51
2022/08/12 01:42:24;;;;;;;2.80;2.60;;;;;;;18.96;66.64;96599.75;5071438;28;20207;-52
2022/08/12 01:44:55;;;;;;;3.47;2.75;;;;;;;18.89;66.15;96600.56;5069940;28;20206;-52
2022/08/12 01:47:39;;;;;;;3.15;2.92;;;;;;;18.75;67.16;96609.53;5057140;28;20242;-51
2022/08/12 01:50:20;;;;;;;3.38;2.85;;;;;;;18.75;67.02;96612.19;5057345;28;20265;-52
2022/08/12 01:52:56;;;;;;;3.03;2.70;;;;;;;18.66;66.87;96608.03;5054598;28;20303;-51
2022/08/12 01:55:25;;;;;;;4.43;2.80;;;;;;;18.65;67.36;96605.53;5056854;28;20607;-51
2022/08/12 01:58:06;;;;;;;2.83;2.63;;;;;;;18.52;69.25;96600.06;5045037;28;20297;-51
2022/08/12 02:00:43;;;;;;;3.15;2.95;;;;;;;18.44;69.12;96601.00;5056968;28;20719;-52
2022/08/12 02:12:16;;;;;;;3.63;2.90;;;;;;;18.33;68.55;96598.84;5025346;28;20692;-51
2022/08/12 02:14:52;;;;;;;5.32;2.80;;;;;;;18.31;69.29;96598.22;5014520;28;20307;-52
2022/08/12 02:17:44;;;;;;;3.58;2.90;;;;;;;18.29;67.13;96603.75;5024599;28;20231;-52
2022/08/12 02:20:17;;;;;;;2.95;2.75;;;;;;;18.37;66.08;96598.28;5065555;28;20233;-52
2022/08/12 02:22:46;;;;;;;3.70;2.67;;;;;;;18.17;69.05;96601.78;5061645;28;20199;-52
2022/08/12 02:25:16;;;;;;;2.70;2.60;;;;;;;18.04;69.69;96597.13;5072761;28;20218;-53
2022/08/12 02:27:46;;;;;;;2.92;2.60;;;;;;;17.95;70.36;96587.56;5076252;28;20206;-51
2022/08/12 02:30:15;;;;;;;2.90;2.70;;;;;;;17.94;70.69;96590.41;5060422;28;20221;-52
2022/08/12 02:32:55;;;;;;;3.63;2.60;;;;;;;17.97;69.12;96592.72;5057941;28;20206;-51
2022/08/12 02:35:24;;;;;;;6.55;2.83;;;;;;;17.82;69.86;96593.59;5046805;28;20698;-52
2022/08/12 02:37:52;;;;;;;3.45;2.88;;;;;;;17.81;70.67;96589.28;5056996;28;20257;-51
2022/08/12 02:40:22;;;;;;;2.95;2.72;;;;;;;17.76;70.06;96589.00;5056573;28;20242;-51
2022/08/12 02:42:53;;;;;;;2.83;2.60;;;;;;;17.78;70.48;96592.28;5056445;28;20566;-51
2022/08/12 02:45:27;;;;;;;3.83;2.90;;;;;;;17.76;70.67;96589.00;5046045;28;20207;-53
2022/08/12 02:47:57;;;;;;;2.75;2.55;;;;;;;17.67;71.54;96579.44;5055733;28;20762;-52
2022/08/12 02:50:26;;;;;;;2.97;2.70;;;;;;;17.69;71.32;96584.59;5056576;28;20586;-53
2022/08/12 02:52:57;;;;;;;4.00;3.00;;;;;;;17.62;72.36;96586.34;5076428;28;20205;-51
2022/08/12 02:55:29;;;;;;;3.20;2.90;;;;;;;17.60;71.46;96580.38;5059694;28;20279;-51
2022/08/12 02:58:00;;;;;;;3.30;3.00;;;;;;;17.57;72.39;96586.91;5056348;28;20571;-51
2022/08/12 03:00:27;;;;;;;2.85;2.70;;;;;;;17.62;71.26;96579.16;5056247;28;20238;-52
2022/08/12 03:02:56;;;;;;;3.10;2.80;;;;;;;17.57;71.68;96581.56;5055924;28;20214;-52
2022/08/12 03:05:24;;;;;;;3.20;3.00;;;;;;;17.55;70.66;96582.75;5055636;28;20222;-51
2022/08/12 03:07:58;;;;;;;2.87;2.57;;;;;;;17.57;69.67;96583.44;5055325;28;20298;-50
2022/08/12 03:10:26;;;;;;;2.70;2.50;;;;;;;17.48;69.83;96574.66;5056018;28;20206;-50
2022/08/12 03:12:58;;;;;;;3.07;2.87;;;;;;;17.55;70.10;96574.72;5055886;28;20299;-51
2022/08/12 03:15:26;;;;;;;3.10;2.80;;;;;;;17.46;71.69;96582.03;5041700;28;20729;-51
2022/08/12 03:17:56;;;;;;;2.90;2.70;;;;;;;17.38;71.95;96574.94;5054701;28;20223;-50
2022/08/12 03:20:24;;;;;;;3.33;3.03;;;;;;;17.40;71.34;96582.78;5055265;28;20248;-51
2022/08/12 03:22:52;;;;;;;2.72;2.53;;;;;;;17.44;70.07;96581.38;5055538;28;20293;-50
2022/08/12 03:25:23;;;;;;;3.60;2.90;;;;;;;17.33;71.45;96581.84;5055585;28;20253;-50
2022/08/12 03:27:55;;;;;;;3.17;2.97;;;;;;;17.38;70.15;96574.13;5055475;28;20715;-52
2022/08/12 03:30:26;;;;;;;3.10;2.83;;;;;;;17.35;72.14;96579.84;5055253;28;20269;-51
2022/08/12 03:32:54;;;;;;;3.13;2.80;;;;;;;17.31;71.49;96578.56;5055404;28;20203;-50
2022/08/12 03:35:26;;;;;;;3.33;3.03;;;;;;;17.40;68.89;96582.78;5055384;28;20235;-51
2022/08/12 03:37:56;;;;;;;6.87;3.17;;;;;;;17.22;71.19;96579.66;5054346;28;20218;-51
2022/08/12 04:02:24;;;;;;;2.90;2.70;;;;;;;16.91;71.67;96583.34;5056390;28;20213;-50
2022/08/12 04:04:53;;;;;;;4.00;3.10;;;;;;;16.85;73.66;96576.09;5055894;28;20290;-51
2022/08/12 04:07:21;;;;;;;4.33;3.13;;;;;;;16.90;72.61;96576.34;5056414;28;20631;-52
2022/08/12 04:09:48;;;;;;;3.47;3.17;;;;;;;16.89;72.97;96580.06;5041973;28;20207;-50
2022/08/12 04:15:00;;;;;;;3.40;3.10;;;;;;;16.85;73.68;96577.91;5042005;28;20296;-52
2022/08/12 04:17:29;;;;;;;3.50;3.00;;;;;;;16.81;73.97;96571.28;5054701;28;20653;-50
2022/08/12 04:19:57;;;;;;;4.07;2.70;;;;;;;16.80;73.53;96581.13;5053645;28;20289;-52
2022/08/12 04:22:29;;;;;;;2.67;2.43;;;;;;;16.79;73.32;96584.00;5054962;28;20225;-52
2022/08/12 04:24:59;;;;;;;3.57;3.27;;;;;;;16.71;75.27;96582.25;5054464;28;20268;-52
2022/08/12 04:27:27;;;;;;;3.27;2.90;;;;;;;16.73;75.60;96582.88;5054705;28;20207;-53
2022/08/12 04:29:56;;;;;;;3.23;2.93;;;;;;;16.79;72.04;96574.13;5054881;28;20270;-51
2022/08/12 04:32:23;;;;;;;3.13;2.90;;;;;;;16.64;73.58;96578.66;5072140;28;20206;-51
2022/08/12 04:34:51;;;;;;;3.10;2.90;;;;;;;16.66;73.60;96581.94;5075062;28;20214;-52
2022/08/12 04:37:18;;;;;;;2.87;2.67;;;;;;;16.68;74.24;96581.78;5071243;28;20272;-50
2022/08/12 04:39:46;;;;;;;3.20;3.00;;;;;;;16.75;73.17;96588.88;5056343;28;20286;-50
2022/08/12 04:42:13;;;;;;;3.33;2.80;;;;;;;16.84;73.48;96592.28;5054344;28;20309;-51
2022/08/12 04:44:41;;;;;;;3.40;3.10;;;;;;;17.11;72.40;96586.28;5054351;28;20293;-51
2022/08/12 04:47:10;;;;;;;3.20;2.70;;;;;;;17.53;71.89;96584.78;5054439;28;20536;-51
2022/08/12 04:49:38;;;;;;;3.50;3.20;;;;;;;17.62;71.32;96586.34;5055285;28;20601;-51
2022/08/12 04:52:06;;;;;;;3.30;2.73;;;;;;;17.78;70.68;96589.63;5055020;28;20294;-50
2022/08/12 04:54:33;;;;;;;3.40;3.10;;;;;;;18.01;68.33;96585.97;5053801;28;20250;-51
2022/08/12 04:57:03;;;;;;;3.10;2.78;;;;;;;17.99;70.60;96588.00;5054361;28;20231;-52
2022/08/12 04:59:31;;;;;;;3.00;2.80;;;;;;;17.99;70.63;96594.19;5041747;28;20214;-50
2022/08/12 05:01:58;;;;;;;3.40;3.10;;;;;;;17.84;72.68;96588.88;5054276;28;20211;-52
2022/08/12 05:04:27;;;;;;;2.95;2.75;;;;;;;17.90;69.23;96590.81;5054029;28;20203;-50
2022/08/12 05:06:55;;;;;;;4.78;3.00;;;;;;;17.82;71.73;96593.59;5054164;28;20203;-52
2022/08/12 05:09:23;;;;;;;3.38;3.00;;;;;;;17.94;72.02;96585.06;5053378;28;20294;-51
2022/08/12 05:11:51;;;;;;;3.05;2.70;;;;;;;18.00;72.30;96585.13;5054390;28;20297;-51
2022/08/12 05:14:18;;;;;;;7.22;3.15;;;;;;;18.25;70.18;96589.09;5045965;28;20243;-51
2022/08/12 05:16:48;;;;;;;2.95;2.70;;;;;;;18.38;68.60;96593.75;5049964;28;20313;-50
2022/08/12 05:19:15;;;;;;;3.15;2.95;;;;;;;18.41;69.90;96593.34;5054137;28;20214;-51
2022/08/12 05:21:44;;;;;;;3.25;2.55;;;;;;;18.55;70.10;96595.16;5054195;28;20228;-52
2022/08/12 05:24:11;;;;;;;3.13;2.70;;;;;;;18.60;69.80;96599.94;5054436;28;20210;-52
2022/08/12 05:26:42;;;;;;;3.30;2.90;;;;;;;18.69;69.78;96602.28;5053830;28;20286;-50
2022/08/12 05:29:15;;;;;;;2.88;2.67;;;;;;;18.65;70.66;96601.00;5054578;28;20598;-52
2022/08/12 05:31:42;;;;;;;2.83;2.63;;;;;;;18.86;67.95;96598.28;5056350;28;20195;-50
2022/08/12 05:34:10;;;;;;;3.55;2.90;;;;;;;18.94;66.51;96605.34;5058054;28;20203;-50
2022/08/12 05:36:37;;;;;;;3.55;2.90;;;;;;;19.30;65.89;96592.56;5057510;28;20242;-50
2022/08/12 05:39:06;;;;;;;2.92;2.72;;;;;;;19.59;63.62;96604.88;5057412;28;20234;-51
2022/08/12 05:41:36;;;;;;;2.28;1.90;;;;;;;20.32;69.60;96603.28;5057552;28;20290;-44
2022/08/12 05:44:07;;;;;;;2.28;1.95;;;;;;;21.30;66.21;96603.25;5057668;28;20264;-45
2022/08/12 05:46:35;;;;;;;1.75;1.65;;;;;;;22.06;62.06;96600.72;5056650;28;20326;-47
2022/08/12 05:49:02;;;;;;;2.00;1.77;;;;;;;22.59;59.88;96601.19;5057146;28;20290;-45
2022/08/12 05:51:30;;;;;;;2.25;2.08;;;;;;;23.04;56.79;96603.72;5056829;28;20282;-45
2022/08/12 05:53:57;;;;;;;2.38;1.88;;;;;;;23.47;56.03;96609.97;5056896;28;20243;-44
2022/08/12 05:56:26;;;;;;;2.33;2.10;;;;;;;23.85;54.75;96606.19;5057252;28;20315;-45
2022/08/12 05:58:54;;;;;;;4.43;2.20;;;;;;;24.16;52.83;96612.22;5056901;28;20203;-46
2022/08/12 06:01:24;;;;;;;1.98;1.88;;;;;;;24.53;51.33;96615.66;5056792;28;20229;-45
2022/08/12 06:03:51;;;;;;;3.63;2.13;;;;;;;24.81;50.13;96612.31;5056858;28;20207;-46
2022/08/12 06:06:20;;;;;;;2.03;1.90;;;;;;;25.07;49.97;96613.78;5056825;28;20653;-46
2022/08/12 06:08:52;;;;;;;2.65;2.40;;;;;;;25.29;45.70;96614.84;5056855;28;20211;-46
2022/08/12 06:11:23;;;;;;;2.20;2.10;;;;;;;24.93;48.38;96610.47;5045548;28;20204;-45
2022/08/12 06:13:54;;;;;;;4.03;2.65;;;;;;;25.05;44.43;96613.19;5050673;28;20223;-45
2022/08/12 06:16:26;;;;;;;2.50;2.30;;;;;;;25.25;42.75;96613.66;5049012;28;20207;-45
2022/08/12 06:18:53;;;;;;;4.82;3.22;;;;;;;25.34;41.90;96612.25;5044154;28;20203;-45
2022/08/12 06:21:22;;;;;;;2.72;2.53;;;;;;;25.13;42.07;96615.53;5055384;28;20509;-45
2022/08/12 06:23:50;;;;;;;2.70;2.50;;;;;;;25.53;43.53;96613.81;5057221;28;20206;-45
2022/08/12 06:26:20;;;;;;;3.83;2.58;;;;;;;25.66;41.56;96613.53;5052925;28;20267;-46
2022/08/12 06:28:49;;;;;;;2.88;2.20;;;;;;;25.82;42.87;96608.44;5056413;28;20234;-46
2022/08/12 06:31:19;;;;;;;3.00;2.00;;;;;;;26.17;44.46;96609.16;5056821;28;20213;-45
2022/08/12 06:33:50;;;;;;;2.60;2.40;;;;;;;25.82;44.22;96616.56;5055989;28;20203;-45
2022/08/12 06:36:18;;;;;;;2.90;2.30;;;;;;;26.19;44.70;96613.28;5056254;28;20345;-45
2022/08/12 06:38:46;;;;;;;4.65;2.22;;;;;;;26.28;40.68;96612.91;5055414;28;20298;-47
2022/08/12 06:43:57;;;;;;;2.90;2.28;;;;;;;26.50;42.30;96620.09;5077135;28;20239;-46
2022/08/12 06:46:26;;;;;;;4.55;2.63;;;;;;;26.28;39.65;96610.19;5078690;28;20247;-46
2022/08/12 06:48:57;;;;;;;5.28;2.40;;;;;;;26.28;41.63;96607.50;5059374;28;20191;-46
2022/08/12 06:51:25;;;;;;;4.28;2.92;;;;;;;26.25;41.54;96611.50;5044275;28;20306;-46
2022/08/12 06:53:52;;;;;;;3.97;2.35;;;;;;;26.28;40.70;96602.91;5057057;28;20227;-46
2022/08/12 06:56:19;;;;;;;3.33;2.38;;;;;;;25.90;39.82;96605.38;5056089;28;20889;-46
2022/08/12 06:58:46;;;;;;;2.72;2.50;;;;;;;26.08;41.26;96603.28;5042697;28;20208;-46
2022/08/12 07:01:13;;;;;;;2.72;2.53;;;;;;;26.47;40.05;96604.31;5055755;28;20245;-46
2022/08/12 07:03:40;;;;;;;3.90;2.45;;;;;;;26.27;40.45;96595.00;5056377;28;20555;-45
2022/08/12 07:06:12;;;;;;;3.70;2.10;;;;;;;26.48;40.57;96597.84;5054988;28;20286;-46
2022/08/12 07:08:41;;;;;;;6.20;2.40;;;;;;;25.91;40.70;96599.69;5055821;28;20226;-45
2022/08/12 07:11:10;;;;;;;3.63;2.70;;;;;;;26.00;41.16;96603.69;5045637;28;20222;-46
2022/08/12 07:13:41;;;;;;;3.17;2.60;;;;;;;26.12;41.87;96607.16;5048973;28;20218;-45
2022/08/12 07:16:09;;;;;;;2.88;2.20;;;;;;;26.50;39.39;96611.16;5048738;28;20199;-45
2022/08/12 07:18:36;;;;;;;2.35;2.03;;;;;;;25.93;40.23;96596.75;5055132;28;20295;-46
2022/08/12 07:21:05;;;;;;;2.20;2.10;;;;;;;26.24;39.64;96596.31;5054957;28;20506;-46
2022/08/12 07:23:35;;;;;;;4.35;2.40;;;;;;;26.18;39.27;96598.06;5049832;28;20712;-46
2022/08/12 07:26:04;;;;;;;4.60;2.60;;;;;;;26.11;39.99;96602.00;5037385;28;20204;-45
2022/08/12 07:28:34;;;;;;;2.38;2.17;;;;;;;26.60;39.60;96600.50;5054355;28;20203;-46
2022/08/12 07:31:03;;;;;;;2.55;2.35;;;;;;;26.44;39.54;96604.81;5054648;28;20199;-45
2022/08/12 07:33:30;;;;;;;2.80;2.30;;;;;;;26.48;39.39;96605.97;5054837;28;20264;-45
2022/08/12 07:36:00;;;;;;;2.22;2.13;;;;;;;26.26;39.76;96605.00;5054676;28;20632;-46
2022/08/12 07:38:30;;;;;;;2.63;2.42;;;;;;;26.68;40.57;96598.19;5045729;28;20662;-45
2022/08/12 07:41:02;;;;;;;3.95;2.45;;;;;;;26.11;39.64;96602.00;5054574;28;20543;-45
2022/08/12 07:43:30;;;;;;;3.35;2.50;;;;;;;26.43;39.24;96607.78;5055134;28;20703;-46
2022/08/12 07:45:57;;;;;;;2.83;2.58;;;;;;;25.64;39.68;96598.59;5054450;28;20207;-45
2022/08/12 07:48:25;;;;;;;3.00;2.70;;;;;;;25.61;40.11;96608.00;5053787;28;20297;-46
2022/08/12 07:50:52;;;;;;;3.58;2.53;;;;;;;25.72;39.74;96609.03;5054141;28;20305;-47
2022/08/12 07:53:19;;;;;;;4.40;2.45;;;;;;;25.69;41.72;96604.09;5054232;28;20241;-46
2022/08/12 07:55:46;;;;;;;3.72;2.42;;;;;;;26.10;42.04;96608.47;5054001;28;20210;-45
2022/08/12 07:58:15;;;;;;;3.78;2.47;;;;;;;25.93;40.08;96604.88;5054734;28;20314;-45
2022/08/12 08:00:42;;;;;;;2.40;2.20;;;;;;;26.34;40.23;96604.63;5054322;28;20206;-45
2022/08/12 08:03:12;;;;;;;3.13;2.67;;;;;;;26.25;40.37;96603.38;5054781;28;20203;-45
2022/08/12 08:05:40;;;;;;;4.97;2.30;;;;;;;26.26;39.43;96609.59;5054088;28;20199;-46
2022/08/12 08:08:14;;;;;;;2.35;2.20;;;;;;;26.39;39.90;96610.16;5050916;28;20196;-45
2022/08/12 08:10:43;;;;;;;2.67;2.47;;;;;;;26.54;39.02;96601.44;5052763;28;20231;-45
2022/08/12 08:13:10;;;;;;;3.55;2.50;;;;;;;26.82;38.33;96600.59;5053864;28;20561;-47
2022/08/12 08:15:39;;;;;;;5.10;2.30;;;;;;;27.16;37.79;96594.09;5041065;28;20259;-45
2022/08/12 08:18:08;;;;;;;5.85;2.55;;;;;;;27.23;38.48;96605.63;5054030;28;20259;-45
2022/08/12 08:20:38;;;;;;;2.50;2.40;;;;;;;27.41;38.18;96602.63;5053262;28;20294;-46
2022/08/12 08:23:07;;;;;;;2.33;2.17;;;;;;;27.22;38.06;96609.41;5054413;28;20211;-46
2022/08/12 08:25:37;;;;;;;4.28;2.20;;;;;;;27.45;37.72;96603.81;5054032;28;20302;-44
2022/08/12 08:28:05;;;;;;;4.28;2.10;;;;;;;27.72;39.76;96611.22;5054078;28;20199;-47
2022/08/12 08:30:33;;;;;;;2.38;2.20;;;;;;;27.81;36.89;96607.00;5054215;28;20635;-45
2022/08/12 08:33:01;;;;;;;5.03;2.30;;;;;;;27.75;36.65;96614.25;5054533;28;20234;-46
2022/08/12 08:35:27;;;;;;;4.28;2.30;;;;;;;28.22;37.16;96603.72;5054161;28;20294;-46
2022/08/12 08:38:06;;;;;;;4.50;2.45;;;;;;;28.45;36.28;96616.22;5053972;28;20226;-45
2022/08/12 08:43:20;;;;;;;4.90;2.60;;;;;;;28.09;37.84;96607.63;5054147;28;20651;-46
2022/08/12 08:45:47;;;;;;;3.75;2.50;;;;;;;28.29;37.13;96611.66;5053970;28;20286;-46
2022/08/12 08:48:15;;;;;;;2.22;2.10;;;;;;;27.52;37.25;96609.06;5054206;28;20254;-46
2022/08/12 08:50:43;;;;;;;3.30;2.40;;;;;;;27.60;37.37;96600.44;5053836;28;20289;-46
2022/08/12 08:53:10;;;;;;;4.80;2.40;;;;;;;28.00;36.00;96602.88;5057567;28;20210;-47
2022/08/12 08:55:36;;;;;;;2.30;2.13;;;;;;;28.10;36.68;96605.75;5059854;28;20199;-51
2022/08/12 08:58:03;;;;;;;3.42;2.10;;;;;;;28.47;36.47;96605.88;5066297;28;20282;-45
2022/08/12 09:00:30;;;;;;;4.03;2.08;;;;;;;28.78;37.45;96607.03;5064365;28;20208;-46
2022/08/12 09:02:57;;;;;;;5.72;2.40;;;;;;;28.60;35.99;96602.75;5057222;28;20227;-47
2022/08/12 09:05:25;;;;;;;3.60;2.53;;;;;;;28.48;35.76;96597.47;5056098;28;20273;-45
2022/08/12 09:07:52;;;;;;;3.22;2.25;;;;;;;28.45;35.65;96597.16;5055500;28;20275;-46
2022/08/12 09:10:20;;;;;;;5.13;2.47;;;;;;;28.29;35.82;96601.63;5057442;28;20294;-46
2022/08/12 09:15:32;;;;;;;4.75;2.45;;;;;;;28.50;35.78;96591.75;5054146;28;20206;-47
2022/08/12 09:17:59;;;;;;;4.22;2.20;;;;;;;28.26;34.88;96588.53;5049115;28;20747;-45
2022/08/12 09:20:32;;;;;;;3.10;2.42;;;;;;;28.50;34.67;96592.59;5055940;28;20290;-46
2022/08/12 09:23:00;;;;;;;5.28;2.28;;;;;;;28.31;34.69;96593.19;5053065;28;20192;-46
2022/08/12 09:25:30;;;;;;;2.97;2.10;;;;;;;28.25;34.38;96592.31;5056604;28;20203;-46
2022/08/12 09:27:57;;;;;;;2.42;2.22;;;;;;;28.59;34.00;96585.59;5049402;28;20706;-46
2022/08/12 09:30:24;;;;;;;3.17;2.30;;;;;;;28.65;34.15;96591.91;5059706;28;20238;-46
2022/08/12 09:32:52;;;;;;;4.43;2.50;;;;;;;28.86;34.08;96584.78;5060847;28;20310;-49
2022/08/12 09:35:22;;;;;;;9.52;2.33;;;;;;;29.11;34.29;96577.63;5060459;28;20298;-47
2022/08/12 09:37:52;;;;;;;6.85;2.13;;;;;;;28.77;32.98;96578.19;5060510;28;20270;-46
2022/08/12 09:40:20;;;;;;;4.22;2.35;;;;;;;28.86;34.22;96588.31;5060393;28;20588;-46
2022/08/12 09:45:33;;;;;;;6.53;2.17;;;;;;;29.02;33.59;96570.19;5058928;28;20256;-46
2022/08/12 09:48:02;;;;;;;3.15;2.00;;;;;;;29.02;32.27;96570.19;5054897;28;20270;-48
2022/08/12 09:50:29;;;;;;;2.65;2.20;;;;;;;29.26;33.55;96559.75;5065984;28;20199;-47
2022/08/12 09:53:07;;;;;;;4.25;2.13;;;;;;;29.01;32.57;96563.13;5061714;28;20199;-47
2022/08/12 09:55:38;;;;;;;2.40;1.98;;;;;;;29.26;33.20;96555.16;5063494;28;20239;-46
2022/08/12 09:58:04;;;;;;;2.40;2.22;;;;;;;29.52;33.06;96554.19;5049507;28;20211;-49
2022/08/12 10:00:33;;;;;;;9.10;2.65;;;;;;;29.57;32.68;96556.97;5050519;28;20589;-45
2022/08/12 10:03:04;;;;;;;4.20;2.33;;;;;;;29.30;31.80;96556.25;5048149;28;20196;-43
2022/08/12 10:05:32;;;;;;;2.70;2.40;;;;;;;29.39;31.67;96541.06;5054075;28;20600;-44
2022/08/12 10:07:59;;;;;;;3.00;2.15;;;;;;;29.33;31.78;96539.41;5051330;28;20279;-44
2022/08/12 10:10:27;;;;;;;2.53;2.40;;;;;;;29.45;31.54;96537.25;5049877;28;20207;-46
2022/08/12 10:15:43;;;;;;;2.45;2.17;;;;;;;29.41;29.97;96541.59;5057366;28;20651;-45
2022/08/12 10:18:10;;;;;;;1.95;1.85;;;;;;;29.70;31.58;96533.00;5052578;28;20251;-46
2022/08/12 10:20:37;;;;;;;4.55;2.05;;;;;;;29.91;31.30;96538.31;5056483;28;20658;-47
2022/08/12 10:23:04;;;;;;;2.00;1.83;;;;;;;29.98;30.94;96540.78;5056392;28;20294;-48
2022/08/12 10:31:01;;;;;;;3.53;2.17;;;;;;;29.84;28.31;96534.16;5056271;28;20344;-43
2022/08/12 10:33:29;;;;;;;2.58;1.58;;;;;;;29.99;28.52;96532.34;5056399;28;20294;-45
2022/08/12 10:35:57;;;;;;;2.13;1.85;;;;;;;29.92;27.33;96531.78;5056099;28;20225;-45
2022/08/12 10:38:23;;;;;;;1.95;1.85;;;;;;;29.87;28.23;96544.56;5056078;28;20277;-46
2022/08/12 10:43:41;;;;;;;2.40;1.70;;;;;;;29.82;27.93;96526.25;5045946;28;20248;-46
2022/08/12 10:46:08;;;;;;;2.80;1.83;;;;;;;29.73;28.01;96530.56;5053192;28;20531;-47
2022/08/12 10:48:34;;;;;;;5.15;2.10;;;;;;;29.90;28.12;96530.41;5056274;28;20227;-46
2022/08/12 10:51:03;;;;;;;4.07;1.90;;;;;;;29.90;28.02;96528.47;5056058;28;20290;-45
2022/08/12 10:53:29;;;;;;;2.45;2.20;;;;;;;29.82;27.94;96525.44;5056018;28;20218;-47
2022/08/12 10:55:57;;;;;;;1.70;1.60;;;;;;;30.01;29.33;96521.16;5055234;28;20242;-45
2022/08/12 10:58:24;;;;;;;2.15;1.88;;;;;;;29.90;27.48;96514.06;5057222;28;20314;-46
2022/08/12 11:00:51;;;;;;;2.38;1.70;;;;;;;30.04;28.67;96504.28;5055350;28;20306;-46
2022/08/12 11:03:17;;;;;;;2.10;1.90;;;;;;;30.14;27.76;96512.47;5058458;28;20302;-47
2022/08/12 11:05:44;;;;;;;2.65;1.98;;;;;;;29.91;27.36;96515.69;5069933;28;20264;-47
2022/08/12 11:08:11;;;;;;;2.42;1.63;;;;;;;29.75;26.86;96508.50;5064224;28;20263;-47
2022/08/12 11:10:38;;;;;;;5.93;2.25;;;;;;;29.74;27.36;96513.13;5060466;28;20691;-46
2022/08/12 11:13:06;;;;;;;1.80;1.67;;;;;;;29.75;28.00;96503.06;5056359;28;20294;-46
2022/08/12 11:15:33;;;;;;;8.80;2.40;;;;;;;29.85;27.47;96503.13;5042782;28;20242;-46
2022/08/12 11:17:59;;;;;;;3.58;1.90;;;;;;;30.18;27.99;96507.31;5055658;28;20234;-46
2022/08/12 11:20:26;;;;;;;2.28;1.83;;;;;;;29.95;26.87;96505.88;5055394;28;20242;-46
2022/08/12 11:22:57;;;;;;;3.05;1.92;;;;;;;30.08;26.05;96495.25;5054676;28;20588;-46
2022/08/12 11:25:23;;;;;;;1.75;1.60;;;;;;;30.06;26.89;96488.44;5051599;28;20207;-48
2022/08/12 11:27:50;;;;;;;3.80;2.53;;;;;;;30.28;27.86;96499.13;5054634;28;20203;-50
2022/08/12 11:30:19;;;;;;;4.53;2.17;;;;;;;30.28;28.56;96486.31;5055094;28;20361;-47
2022/08/12 11:32:45;;;;;;;3.78;1.75;;;;;;;30.17;27.30;96484.66;5041596;28;20238;-47
2022/08/12 11:35:12;;;;;;;11.23;2.40;;;;;;;30.16;27.32;96493.09;5050932;28;20286;-46
2022/08/12 11:37:40;;;;;;;3.40;1.80;;;;;;;29.88;25.88;96480.78;5043623;28;20343;-47
2022/08/12 11:40:08;;;;;;;1.90;1.80;;;;;;;30.05;28.10;96484.06;5055385;28;20336;-48
2022/08/12 11:42:38;;;;;;;1.70;1.52;;;;;;;30.13;27.38;96478.09;5054512;28;20295;-47
2022/08/12 11:45:05;;;;;;;2.95;2.00;;;;;;;30.07;27.35;96473.72;5054313;28;20286;-43
2022/08/12 11:47:33;;;;;;;1.83;1.70;;;;;;;30.13;27.91;96483.56;5054351;28;20242;-52
2022/08/12 11:50:00;;;;;;;1.90;1.70;;;;;;;30.11;25.94;96466.66;5054857;28;20290;-47
2022/08/12 11:52:27;;;;;;;2.03;1.88;;;;;;;29.87;26.52;96469.03;5054865;28;20215;-47
2022/08/12 11:54:54;;;;;;;2.05;1.70;;;;;;;29.62;26.78;96472.47;5054216;28;20595;-46
2022/08/12 11:57:20;;;;;;;2.53;1.60;;;;;;;29.91;26.80;96480.22;5053248;28;20679;-47
2022/08/12 11:59:47;;;;;;;4.40;1.90;;;;;;;29.85;27.45;96470.41;5054312;28;20214;-46
2022/08/12 12:02:14;;;;;;;2.38;1.80;;;;;;;29.90;26.67;96473.94;5054052;28;20286;-46
2022/08/12 12:04:42;;;;;;;1.75;1.65;;;;;;;29.92;26.98;96470.97;5053951;28;20305;-46
2022/08/12 12:07:08;;;;;;;2.85;1.52;;;;;;;29.79;26.08;96468.72;5053561;28;20275;-47
2022/08/12 12:09:35;;;;;;;1.70;1.58;;;;;;;29.91;25.80;96464.69;5054661;28;20286;-46
2022/08/12 12:12:03;;;;;;;1.70;1.60;;;;;;;29.58;25.84;96468.66;5054468;28;20218;-46
2022/08/12 12:14:29;;;;;;;2.67;1.70;;;;;;;29.76;26.89;96459.16;5044579;28;20207;-45
2022/08/12 12:16:56;;;;;;;2.15;1.65;;;;;;;29.46;26.12;96457.16;5051786;28;20301;-46
2022/08/12 12:19:23;;;;;;;2.50;1.58;;;;;;;29.59;26.50;96455.84;5046491;28;20313;-46
2022/08/12 12:21:51;;;;;;;2.08;1.95;;;;;;;29.74;26.60;96460.53;5054460;28;20739;-46
2022/08/12 12:24:18;;;;;;;3.17;1.90;;;;;;;30.07;26.71;96446.47;5048363;28;20532;-46
2022/08/12 12:26:45;;;;;;;2.92;1.60;;;;;;;30.35;27.36;96459.56;5052255;28;20504;-45
2022/08/12 12:29:11;;;;;;;1.73;1.63;;;;;;;30.27;25.76;96451.09;5047192;28;20282;-46
2022/08/12 12:31:38;;;;;;;1.75;1.58;;;;;;;30.02;25.64;96450.00;5052524;28;20246;-46
2022/08/12 12:34:05;;;;;;;2.70;1.52;;;;;;;29.77;26.00;96449.06;5046164;28;20290;-46
2022/08/12 12:36:31;;;;;;;2.00;1.65;;;;;;;29.78;26.37;96456.19;5049438;28;20655;-45
2022/08/12 12:38:59;;;;;;;2.00;1.65;;;;;;;29.89;26.33;96452.41;5051063;28;20349;-45
2022/08/12 12:41:26;;;;;;;2.70;2.00;;;;;;;29.93;25.38;96456.25;5051449;28;20354;-46
2022/08/12 12:43:53;;;;;;;2.95;1.45;;;;;;;30.00;26.63;96440.44;5050587;28;20702;-45
2022/08/12 12:46:20;;;;;;;5.05;2.17;;;;;;;30.14;27.12;96441.56;5053138;28;20905;-46
2022/08/12 12:48:46;;;;;;;3.42;1.65;;;;;;;30.08;26.93;96439.91;5051847;28;20239;-46
2022/08/12 12:51:16;;;;;;;2.05;1.73;;;;;;;29.85;25.46;96443.13;5053850;28;20537;-45
2022/08/12 12:53:44;;;;;;;1.80;1.70;;;;;;;29.73;25.44;96439.78;5052961;28;20290;-47
2022/08/12 12:56:19;;;;;;;2.60;1.50;;;;;;;29.26;25.93;96429.84;5054956;28;20687;-46
2022/08/12 12:58:48;;;;;;;3.03;1.58;;;;;;;29.32;26.11;96436.94;5050438;28;20211;-45
2022/08/12 13:01:17;;;;;;;4.80;1.80;;;;;;;29.50;26.44;96436.47;5051635;28;20203;-46
2022/08/12 13:03:44;;;;;;;2.38;1.58;;;;;;;29.50;26.79;96441.94;5050301;28;20597;-48
2022/08/12 13:06:12;;;;;;;1.80;1.70;;;;;;;29.57;25.90;96439.78;5050240;28;20196;-47
2022/08/12 13:08:39;;;;;;;3.70;1.58;;;;;;;29.31;25.51;96432.59;5052353;28;20223;-47
2022/08/12 13:11:07;;;;;;;3.92;1.60;;;;;;;29.29;25.71;96440.22;5062784;28;20209;-46
2022/08/12 13:13:35;;;;;;;2.13;1.70;;;;;;;29.39;26.05;96431.25;5066531;28;20195;-46
2022/08/12 13:16:02;;;;;;;1.98;1.80;;;;;;;29.25;25.42;96439.06;5058443;28;20196;-46
2022/08/12 13:18:35;;;;;;;2.25;1.33;;;;;;;29.28;26.14;96438.56;5060665;28;20250;-45
2022/08/12 13:21:01;;;;;;;1.77;1.67;;;;;;;29.40;26.47;96427.47;5051459;28;20191;-45
2022/08/12 13:23:28;;;;;;;2.90;1.85;;;;;;;29.52;26.95;96437.03;5053943;28;20286;-46
2022/08/12 13:25:55;;;;;;;1.70;1.60;;;;;;;29.38;26.05;96427.72;5053549;28;20290;-46
2022/08/12 13:28:22;;;;;;;1.70;1.60;;;;;;;28.98;25.45;96433.75;5056177;28;20199;-44